Terminal Aerodrome Forecast
Issued by NWS

Home | Current Version | Previous Version | Graphics & Text | Print | Product List | Glossary On
Versions: 1 2 3 4 5 6 7 8 9 10 11 12 13 14 15 16 17 18 19 20 21 22 23 24 25 26 27 28 29
774
FTUS43 KLOT 100857 AAA
TAFORD
TAF AMD
KORD 100857Z 1009/1112 22007KT P6SM SCT050 BKN100
     FM102100 31010KT P6SM SCT025 BKN050
     FM111100 21007KT P6SM -SHSN SCT025 OVC030=

USA.gov is the U.S. government's official web portal to all federal, state and local government web resources and services.